Bradford, OH (45308)

2:47 AM EDT on October 23, 2014 (GMT -0400)
KOHVERSA2 | Change Station
CLOSE
Current Station
Personal Weather Station
Location: Versailles, OH
Elevation: 1001 ft
Nearby Weather Stations
Active Advisory: Frost Advisory

Elev 1001 ft 40.22 °N, 84.48 °W | Updated 2 seconds ago

Overcast
Overcast
43.2 °F
Feels Like 43 °F
N
0.0
Wind Variable Wind from SSE
Gusts 1.0 mph

Today
High -- | Low -- °F
--% Chance of Precip.
Yesterday
High -- | Low -- °F
Precip. -- in
7:57 AM 6:46 PM
Waning Crescent, 0% visible
Pressure 30.26 in
Visibility 7.0 miles
Clouds Overcast 2400 ft
Windchill 43 °F
Dew Point 39 °F
Humidity 86%
Rainfall 0.00 in
Snow Depth Not available.
UV 0 out of 12
Pollen 1.20 out of 12
Ozone Good
PM2.5 Moderate
Flu Activity Sporadic
METAR KVES 230635Z AUTO 00000KT 7SM OVC024 05/05 A3026 RMK AO2

More Conditions Fewer Conditions

Pressure 30.26 in
Visibility 7.0 miles
Clouds Overcast 2400 ft
Windchill 43 °F
Dew Point 39 °F
Humidity 86%
Rainfall 0.00 in
Snow Depth Not available.
UV 0 out of 12
Pollen 1.20 out of 12
Ozone Good
PM2.5 Moderate
Flu Activity Sporadic
METAR KVES 230635Z AUTO 00000KT 7SM OVC024 05/05 A3026 RMK AO2

More Conditions Fewer Conditions

10-Day Weather Forecast

Almanac

Astronomy

Oct. 23, 2014 Rise Set
Actual Time 7:57 AM EDT 6:46 PM EDT
Civil Twilight 7:29 AM EDT 7:14 PM EDT
Nautical Twilight 6:57 AM EDT 7:45 PM EDT
Astronomical Twilight 6:26 AM EDT 8:17 PM EDT
Moon 7:35 AM EDT 6:47 PM EDT
Length of Visible Light 11h 44m
Length of Day
10h 49m
Tomorrow will be 2m 28s shorter.
Waning Crescent, 0% of the Moon is Illuminated
Today
Waning Crescent
Oct 23
New
Oct 30
First Quarter
Nov 6
Full
Nov 14
Last Quarter

Today's Extremes

State Highs State Lows

Community

WunderPhotos

Upload Photos

1,764,194 photos uploaded!

Nearby

Air Quality

  Air Quality AQ Index Pollutant
Yesterday Good
PM2.5
Yesterday Good
OZONE
Current Moderate
PM2.5
Current Good
OZONE
Thursday Moderate
PM2.5
Thursday Good
OZONE
Friday Good
PM2.5
Friday Good
OZONE
Saturday Good
PM2.5
Saturday Good
OZONE
Sunday Good
PM2.5
Sunday Good
OZONE

Snow Depth

Station Depth Elevation
No new snow has been reported.

Earthquake Activity

City Distance Mag. Time & Date
No recent earthquake activity has been reported nearby.
Minimum magnitude displayed is 2.5.

Coastal Water Temperatures

Place Temperature
No Stations Reporting

Nearby Weather Stations